Time;durP1;ratioP1;P1;durP2;ratioP2;P2;SDS_P1;SDS_P2;PMS_P1;PMS_P2;Temp;Humidity;BMP_temperature;BMP_pressure;BME280_temperature;BME280_humidity;BME280_pressure;Samples;Min_cycle;Max_cycle;Signal;HPM_P1;HPM_P2
2022/12/03 00:00:12;;;;;;;46.25;28.30;;;;;;;-2.80;88.10;100949.28;1686210;84;21118;-73
2022/12/03 00:02:41;;;;;;;50.60;27.98;;;;;;;-2.75;88.20;100958.33;1675844;84;21103;-72
2022/12/03 00:05:09;;;;;;;48.95;26.65;;;;;;;-2.76;88.09;100949.80;1677153;85;21106;-72
2022/12/03 00:07:35;;;;;;;48.63;30.52;;;;;;;-2.77;88.12;100952.33;1661488;86;21087;-72
2022/12/03 00:10:03;;;;;;;42.88;25.05;;;;;;;-2.73;87.75;100955.41;1719497;83;21579;-74
2022/12/03 00:12:29;;;;;;;;;;;;;;;-2.71;88.03;100957.59;1714552;83;21082;-72
2022/12/03 00:14:56;;;;;;;47.10;26.70;;;;;;;-2.67;87.79;100963.64;1676668;85;20478;-72
2022/12/03 00:17:23;;;;;;;41.02;25.48;;;;;;;-2.75;88.14;100960.88;1676331;85;21518;-74
2022/12/03 00:19:49;;;;;;;43.78;26.82;;;;;;;-2.79;87.92;100957.38;1674082;85;21015;-72
2022/12/03 00:22:16;;;;;;;40.80;25.20;;;;;;;-2.80;88.08;100954.77;1674248;85;21067;-72
2022/12/03 00:24:42;;;;;;;45.23;27.95;;;;;;;-2.80;87.96;100953.49;1674499;85;20984;-73
2022/12/03 00:27:09;;;;;;;41.97;27.67;;;;;;;-2.83;88.04;100953.03;1671134;85;21043;-72
2022/12/03 00:29:36;;;;;;;44.23;27.33;;;;;;;-2.84;88.15;100952.97;1677776;84;21162;-72
2022/12/03 00:32:02;;;;;;;46.65;27.95;;;;;;;-2.89;88.28;100944.31;1674837;84;21561;-74
2022/12/03 00:34:29;;;;;;;46.13;27.73;;;;;;;-2.92;88.32;100940.84;1664949;85;21104;-72
2022/12/03 00:36:55;;;;;;;48.95;27.25;;;;;;;-2.90;88.27;100942.59;1656150;86;21040;-72
2022/12/03 00:39:22;;;;;;;45.70;25.85;;;;;;;-2.89;88.36;100944.31;1656075;86;21059;-73
2022/12/03 00:41:48;;;;;;;46.02;26.82;;;;;;;-2.89;88.09;100946.88;1657426;86;21060;-72
2022/12/03 00:44:15;;;;;;;49.85;29.15;;;;;;;-2.87;88.39;100947.78;1653176;86;21635;-72
2022/12/03 00:46:42;;;;;;;48.48;28.17;;;;;;;-2.85;88.20;100943.59;1648516;86;21688;-72
2022/12/03 00:49:09;;;;;;;44.58;27.00;;;;;;;-2.89;88.36;100947.73;1652938;86;21623;-72
2022/12/03 00:51:35;;;;;;;43.08;26.25;;;;;;;-2.89;88.35;100954.53;1654737;86;21057;-72
2022/12/03 00:54:02;;;;;;;45.08;28.62;;;;;;;-2.90;88.14;100952.81;1646025;86;20995;-72
2022/12/03 00:56:28;;;;;;;45.10;25.75;;;;;;;-2.87;87.97;100955.45;1650305;86;21494;-72
2022/12/03 00:58:55;;;;;;;48.13;30.02;;;;;;;-2.87;87.93;100958.01;1658412;86;21021;-72
2022/12/03 01:01:22;;;;;;;46.90;29.35;;;;;;;-2.88;87.87;100958.84;1657764;86;21050;-72
2022/12/03 01:03:48;;;;;;;55.23;31.57;;;;;;;-2.90;88.02;100948.98;1653348;86;21003;-72
2022/12/03 01:06:15;;;;;;;47.13;28.38;;;;;;;-2.92;87.97;100958.73;1653760;86;21069;-72
2022/12/03 01:08:41;;;;;;;44.58;27.95;;;;;;;-2.89;87.83;100955.40;1640868;86;21207;-72
2022/12/03 01:11:36;;;;;;;44.38;25.52;;;;;;;-2.88;87.77;100955.02;1662635;86;21054;-72
2022/12/03 01:13:36;;;;;;;45.50;26.10;;;;;;;-2.89;87.76;100953.26;1658536;86;21129;-72
2022/12/03 01:16:03;;;;;;;45.48;27.45;;;;;;;-2.89;87.81;100953.26;1662759;86;21065;-72
2022/12/03 01:18:29;;;;;;;44.35;26.27;;;;;;;-2.87;87.76;100947.78;1661819;86;21482;-72
2022/12/03 01:20:56;;;;;;;41.92;26.40;;;;;;;-2.93;87.78;100939.13;1662904;86;21596;-72
2022/12/03 01:23:23;;;;;;;46.20;27.25;;;;;;;-2.93;88.03;100940.40;1658649;85;21022;-72
2022/12/03 01:25:49;;;;;;;38.23;24.75;;;;;;;-2.95;88.28;100943.73;1667006;85;21113;-72
2022/12/03 01:28:16;;;;;;;42.17;24.45;;;;;;;-2.95;88.26;100939.48;1668240;85;21070;-72
2022/12/03 01:33:27;;;;;;;48.35;28.00;;;;;;;-2.90;88.40;100940.03;1648338;86;21102;-72
2022/12/03 01:35:54;;;;;;;41.77;27.82;;;;;;;-2.93;88.18;100931.45;1662497;85;21061;-72
2022/12/03 01:38:20;;;;;;;39.37;25.33;;;;;;;-2.93;88.12;100935.29;1642512;85;21024;-72
2022/12/03 01:40:48;;;;;;;50.48;29.65;;;;;;;-2.98;88.34;100938.13;1660313;85;21073;-72
2022/12/03 01:43:15;;;;;;;50.05;30.80;;;;;;;-2.99;88.35;100936.41;1665266;86;21026;-72
2022/12/03 01:45:42;;;;;;;52.10;27.58;;;;;;;-3.01;88.18;100927.83;1668397;85;21089;-72
2022/12/03 01:48:12;;;;;;;45.63;29.27;;;;;;;-3.04;88.37;100931.58;1656841;85;21054;-72
2022/12/03 01:50:39;;;;;;;48.52;30.77;;;;;;;-2.96;88.13;100931.38;1656510;85;21148;-73
2022/12/03 01:53:06;;;;;;;44.58;27.37;;;;;;;-3.08;88.33;100922.11;1654494;86;21070;-72
2022/12/03 01:55:32;;;;;;;45.83;29.92;;;;;;;-3.09;88.61;100931.86;1656301;86;20975;-72
2022/12/03 01:58:01;;;;;;;50.40;30.33;;;;;;;-3.11;88.59;100928.39;1660431;85;21081;-73
2022/12/03 02:00:29;;;;;;;51.37;30.82;;;;;;;-3.09;88.51;100938.66;1667374;85;21102;-72
2022/12/03 02:03:03;;;;;;;50.90;30.88;;;;;;;-3.12;88.55;100939.45;1668962;85;21024;-72
2022/12/03 02:05:32;;;;;;;46.42;29.00;;;;;;;-3.09;88.48;100933.14;1627970;86;21692;-72
2022/12/03 02:08:00;;;;;;;46.45;29.20;;;;;;;-3.16;88.68;100928.70;1636987;86;21109;-72
2022/12/03 02:10:34;;;;;;;50.95;31.37;;;;;;;-3.27;89.09;100918.18;1651029;86;21028;-72
2022/12/03 02:13:05;;;;;;;57.05;35.05;;;;;;;-3.22;88.93;100922.12;1667701;85;21599;-72
2022/12/03 02:15:32;;;;;;;54.30;32.48;;;;;;;-3.22;88.92;100919.56;1658570;86;21002;-72
2022/12/03 02:18:00;;;;;;;44.67;28.70;;;;;;;-3.25;88.97;100915.65;1656145;86;21049;-71
2022/12/03 02:20:26;;;;;;;;;;;;;;;-3.28;89.42;100921.95;1662502;85;21050;-71
2022/12/03 02:23:10;;;;;;;51.30;30.85;;;;;;;-3.29;88.93;100907.46;1653485;86;20387;-71
2022/12/03 02:25:37;;;;;;;43.05;27.27;;;;;;;-3.37;89.59;100908.09;1622973;88;21070;-71
2022/12/03 02:28:07;;;;;;;44.35;29.07;;;;;;;-3.40;89.79;100913.55;1600522;88;21103;-71
2022/12/03 02:30:35;;;;;;;47.25;28.90;;;;;;;-3.45;89.89;100913.40;1612344;88;21151;-71
2022/12/03 02:33:02;;;;;;;;;;;;;;;-3.45;89.40;100907.02;1616994;87;21074;-71
2022/12/03 02:35:33;;;;;;;53.30;30.10;;;;;;;-3.44;89.41;100908.77;1620060;86;20151;-71
2022/12/03 02:38:05;;;;;;;55.80;34.40;;;;;;;-3.46;89.69;100904.02;1623300;86;21048;-71
2022/12/03 02:40:33;;;;;;;56.90;33.80;;;;;;;-3.45;89.28;100908.70;1616861;87;21650;-72
2022/12/03 02:43:05;;;;;;;49.25;32.03;;;;;;;-3.46;89.24;100902.74;1615067;88;21517;-71
2022/12/03 02:45:45;;;;;;;49.18;32.48;;;;;;;-3.43;89.29;100902.83;1643239;86;21622;-71
2022/12/03 02:48:25;;;;;;;52.62;32.42;;;;;;;-3.43;89.62;100905.38;1649686;86;21112;-71
2022/12/03 02:50:56;;;;;;;49.85;31.97;;;;;;;-3.43;89.71;100907.94;1648618;86;21116;-71
2022/12/03 02:53:35;;;;;;;50.95;31.62;;;;;;;-3.41;89.55;100911.41;1624910;87;21038;-71
2022/12/03 02:56:03;;;;;;;49.30;31.57;;;;;;;-3.41;89.47;100906.30;1630470;87;21685;-71
2022/12/03 02:58:32;;;;;;;46.15;28.07;;;;;;;-3.41;89.54;100908.84;1632779;87;21028;-71
2022/12/03 03:01:01;;;;;;;60.05;33.15;;;;;;;-3.41;90.05;100908.84;1619582;87;21488;-71
2022/12/03 03:03:30;;;;;;;53.05;33.33;;;;;;;-3.46;89.91;100910.41;1646325;85;21576;-72
2022/12/03 03:05:59;;;;;;;42.83;28.50;;;;;;;-3.48;89.94;100908.20;1647501;85;21064;-71
2022/12/03 03:08:28;;;;;;;48.90;30.50;;;;;;;-3.53;90.01;100894.44;1652788;85;21159;-72
2022/12/03 03:10:56;;;;;;;54.35;30.75;;;;;;;-3.53;89.97;100900.82;1650527;85;21616;-72
2022/12/03 03:13:23;;;;;;;50.03;31.27;;;;;;;-3.53;89.98;100899.55;1638374;86;21034;-71
2022/12/03 03:15:50;;;;;;;50.52;30.95;;;;;;;-3.54;90.19;100895.69;1673770;86;21036;-72
2022/12/03 03:18:18;;;;;;;57.80;34.73;;;;;;;-3.50;89.91;100900.94;1674239;85;21579;-71
2022/12/03 03:20:45;;;;;;;55.12;30.60;;;;;;;-3.48;89.81;100899.27;1682099;84;21392;-71
2022/12/03 03:23:18;;;;;;;58.80;34.85;;;;;;;-3.44;89.76;100898.55;1682326;84;22263;-72
2022/12/03 03:25:59;;;;;;;55.73;33.83;;;;;;;-3.38;89.52;100898.72;1682951;84;21051;-71
2022/12/03 03:28:28;;;;;;;48.98;28.40;;;;;;;-3.35;89.53;100894.53;1685301;84;21016;-72
2022/12/03 03:30:56;;;;;;;61.65;35.63;;;;;;;-3.35;89.78;100894.53;1682701;85;21079;-72
2022/12/03 03:33:23;;;;;;;48.40;28.07;;;;;;;-3.32;89.60;100893.33;1654999;85;21019;-72
2022/12/03 03:35:50;;;;;;;47.10;30.30;;;;;;;-3.35;89.96;100889.42;1686276;84;21039;-72
2022/12/03 03:38:19;;;;;;;39.53;27.07;;;;;;;-3.34;90.26;100880.92;1677575;85;21532;-72
2022/12/03 03:40:50;;;;;;;49.77;29.63;;;;;;;-3.34;90.19;100883.48;1678496;85;21684;-72
2022/12/03 03:43:18;;;;;;;51.65;28.45;;;;;;;-3.38;90.28;100880.84;1676683;84;21111;-72
2022/12/03 03:45:45;;;;;;;48.83;30.70;;;;;;;-3.39;90.78;100881.67;1678936;84;21042;-72
2022/12/03 03:48:13;;;;;;;52.45;29.07;;;;;;;-3.44;90.95;100879.81;1678417;84;21553;-71
2022/12/03 03:50:41;;;;;;;51.68;32.30;;;;;;;-3.46;90.91;100879.77;1679932;84;20976;-71
2022/12/03 03:53:09;;;;;;;48.63;29.20;;;;;;;-3.47;90.87;100880.59;1677035;84;21116;-72
2022/12/03 03:55:35;;;;;;;47.53;29.25;;;;;;;-3.46;90.56;100874.66;1679021;84;21055;-72
2022/12/03 03:58:02;;;;;;;48.33;29.02;;;;;;;-3.45;90.75;100871.27;1679805;85;21147;-71
2022/12/03 04:00:30;;;;;;;57.65;30.65;;;;;;;-3.43;90.74;100867.08;1679269;85;21063;-72
2022/12/03 04:02:56;;;;;;;53.28;31.07;;;;;;;-3.44;90.70;100871.73;1681859;84;21511;-72
2022/12/03 04:05:24;;;;;;;54.30;29.90;;;;;;;-3.42;90.38;100865.38;1679512;85;21060;-72
2022/12/03 04:07:51;;;;;;;57.03;33.10;;;;;;;-3.38;90.31;100866.80;1679875;84;21043;-72
2022/12/03 04:13:03;;;;;;;56.95;31.87;;;;;;;-3.32;90.05;100870.34;1677934;85;21092;-71
2022/12/03 04:15:30;;;;;;;54.73;33.58;;;;;;;-3.33;89.92;100867.31;1678636;85;21532;-72
2022/12/03 04:20:42;;;;;;;61.05;33.05;;;;;;;-3.32;89.86;100871.63;1682651;84;21059;-72
2022/12/03 04:23:08;;;;;;;59.80;33.58;;;;;;;-3.37;89.82;100860.86;1677724;85;21069;-71
2022/12/03 04:36:36;;;;;;;60.85;33.92;;;;;;;-3.49;89.85;100865.64;1678998;84;21081;-72
2022/12/03 04:39:03;;;;;;;56.15;33.55;;;;;;;-3.55;89.93;100869.30;1686115;84;21103;-71
2022/12/03 04:41:30;;;;;;;62.03;33.75;;;;;;;-3.56;90.30;100866.27;1660293;86;21494;-72
2022/12/03 04:46:42;;;;;;;61.73;35.80;;;;;;;-3.63;90.09;100868.21;1673825;84;21632;-72
2022/12/03 04:49:08;;;;;;;60.52;34.13;;;;;;;-3.69;89.98;100868.05;1675384;84;21127;-72
2022/12/03 04:51:35;;;;;;;64.20;36.23;;;;;;;-3.71;90.27;100859.47;1663655;85;21030;-71
2022/12/03 04:54:01;;;;;;;45.90;27.62;;;;;;;-3.69;90.15;100865.48;1678397;84;21122;-72
2022/12/03 04:56:28;;;;;;;60.30;34.18;;;;;;;-3.74;90.33;100859.38;1657090;85;21564;-71
2022/12/03 04:58:54;;;;;;;63.90;34.80;;;;;;;-3.77;90.12;100861.44;1665137;84;21607;-71
2022/12/03 05:01:21;;;;;;;64.30;31.57;;;;;;;-3.78;90.22;100865.20;1679155;85;21691;-73
2022/12/03 05:03:48;;;;;;;59.93;32.13;;;;;;;-3.86;90.49;100864.59;1673954;85;21150;-72
2022/12/03 05:06:14;;;;;;;58.77;32.90;;;;;;;-3.89;90.43;100860.67;1648288;86;20995;-72
2022/12/03 05:08:41;;;;;;;68.33;34.90;;;;;;;-3.87;90.34;100865.80;1698971;83;21556;-72
2022/12/03 05:11:07;;;;;;;72.92;37.80;;;;;;;-3.86;90.27;100861.17;1695662;83;21576;-72
2022/12/03 05:13:34;;;;;;;60.12;30.62;;;;;;;-3.90;90.39;100861.47;1679471;85;21073;-71
2022/12/03 05:16:00;;;;;;;56.55;30.37;;;;;;;-3.90;90.62;100861.47;1676754;85;21118;-73
2022/12/03 05:18:27;;;;;;;54.93;29.40;;;;;;;-3.87;90.73;100856.45;1678606;84;22234;-71
2022/12/03 05:20:54;;;;;;;58.75;29.82;;;;;;;-3.92;90.98;100868.23;1678913;85;21606;-71
2022/12/03 05:23:20;;;;;;;66.35;33.80;;;;;;;-3.91;90.66;100862.30;1678866;84;21124;-71
2022/12/03 05:25:47;;;;;;;73.25;35.38;;;;;;;-3.92;90.84;100864.41;1681598;84;21588;-71
2022/12/03 05:28:14;;;;;;;72.97;36.13;;;;;;;-3.94;90.76;100854.56;1685688;84;21540;-71
2022/12/03 05:30:41;;;;;;;59.88;32.95;;;;;;;-3.93;90.69;100856.28;1677508;85;21025;-71
2022/12/03 05:33:07;;;;;;;58.20;29.32;;;;;;;-3.92;90.72;100851.66;1678381;84;21109;-71
2022/12/03 05:35:34;;;;;;;52.78;29.27;;;;;;;-3.93;90.79;100843.52;1650455;86;21133;-71
2022/12/03 05:38:00;;;;;;;64.35;30.80;;;;;;;-3.94;91.09;100845.62;1701139;83;22392;-74
2022/12/03 05:40:28;;;;;;;56.97;29.10;;;;;;;-3.92;91.04;100854.20;1661895;86;21033;-71
2022/12/03 05:42:55;;;;;;;49.30;27.67;;;;;;;-3.95;91.22;100845.19;1679715;85;21094;-71
2022/12/03 05:45:30;;;;;;;48.65;27.00;;;;;;;-3.96;91.66;100843.44;1690831;83;21106;-71
2022/12/03 05:47:58;;;;;;;51.37;29.70;;;;;;;-3.99;91.58;100843.34;1674025;85;21511;-72
2022/12/03 05:50:29;;;;;;;60.43;30.65;;;;;;;-4.03;91.46;100841.55;1698852;83;21132;-72
2022/12/03 05:52:57;;;;;;;54.00;29.10;;;;;;;-4.05;91.54;100840.63;1689257;83;21203;-72
2022/12/03 05:55:24;;;;;;;60.52;29.23;;;;;;;-4.09;91.88;100838.78;1676777;85;21060;-72
2022/12/03 05:57:51;;;;;;;58.20;30.92;;;;;;;-4.09;91.81;100847.71;1677117;84;21420;-71
2022/12/03 06:00:25;;;;;;;63.85;31.12;;;;;;;-4.15;92.19;100846.25;1692524;83;21108;-73
2022/12/03 06:02:53;;;;;;;62.40;30.30;;;;;;;-4.17;92.14;100845.34;1695068;83;21077;-72
2022/12/03 06:05:20;;;;;;;;;;;;;;;-4.18;92.33;100848.72;1670544;85;21081;-72
2022/12/03 06:07:48;;;;;;;58.98;29.40;;;;;;;-4.18;92.20;100848.72;1677297;85;20152;-71
2022/12/03 06:10:19;;;;;;;55.78;29.25;;;;;;;-4.17;92.16;100855.53;1673700;85;20981;-71
2022/12/03 06:12:46;;;;;;;54.40;26.52;;;;;;;-4.19;92.28;100845.31;1677376;84;21016;-72
2022/12/03 06:15:13;;;;;;;54.13;28.77;;;;;;;-4.20;92.53;100845.25;1691561;83;21140;-72
2022/12/03 06:17:40;;;;;;;55.67;28.45;;;;;;;-4.25;92.27;100855.74;1692715;83;21565;-72
2022/12/03 06:20:12;;;;;;;53.03;28.00;;;;;;;-4.31;92.28;100843.26;1669203;86;21084;-72
2022/12/03 06:22:39;;;;;;;59.67;29.30;;;;;;;-4.33;92.52;100849.98;1686943;85;21017;-72
2022/12/03 06:25:06;;;;;;;53.08;28.15;;;;;;;-4.34;92.10;100848.27;1677549;85;21167;-72
2022/12/03 06:27:33;;;;;;;66.67;31.68;;;;;;;-4.34;92.24;100853.36;1680591;84;21064;-72
2022/12/03 06:30:00;;;;;;;53.05;28.30;;;;;;;-4.34;92.04;100855.91;1643127;86;21018;-72
2022/12/03 06:32:26;;;;;;;52.37;27.10;;;;;;;-4.37;92.28;100867.67;1660243;85;21169;-72
2022/12/03 06:34:53;;;;;;;51.75;26.37;;;;;;;-4.36;92.03;100855.41;1683580;85;21029;-72
2022/12/03 06:37:19;;;;;;;57.15;28.83;;;;;;;-4.40;91.96;100860.80;1689566;85;21144;-72
2022/12/03 06:39:46;;;;;;;46.63;26.05;;;;;;;-4.41;92.23;100860.35;1675056;85;21623;-72
2022/12/03 06:42:12;;;;;;;53.48;26.95;;;;;;;-4.42;92.50;100857.36;1681070;85;21473;-72
2022/12/03 06:44:39;;;;;;;50.45;25.70;;;;;;;-4.41;92.37;100856.52;1655722;85;21062;-73
2022/12/03 06:47:06;;;;;;;51.60;27.75;;;;;;;-4.40;92.56;100857.38;1665225;85;21104;-72
2022/12/03 06:49:32;;;;;;;54.42;29.12;;;;;;;-4.37;92.16;100855.82;1676102;84;21000;-72
2022/12/03 06:51:59;;;;;;;51.95;28.55;;;;;;;-4.34;92.20;100858.47;1675500;84;21034;-71
2022/12/03 06:54:25;;;;;;;51.63;27.65;;;;;;;-4.33;92.13;100856.36;1665641;85;21041;-72
2022/12/03 06:56:52;;;;;;;52.40;28.30;;;;;;;-4.34;92.39;100853.36;1674087;84;21065;-72
2022/12/03 06:59:19;;;;;;;55.23;28.95;;;;;;;-4.32;92.19;100849.16;1672430;85;21008;-74
2022/12/03 07:01:45;;;;;;;49.95;26.85;;;;;;;-4.29;91.77;100854.76;1673095;84;21048;-72
2022/12/03 07:04:12;;;;;;;43.73;25.35;;;;;;;-4.31;92.51;100857.28;1675460;85;21067;-72
2022/12/03 07:06:38;;;;;;;49.60;26.57;;;;;;;-4.32;92.26;100854.25;1678012;84;21046;-72
2022/12/03 07:09:05;;;;;;;61.20;33.88;;;;;;;-4.33;92.72;100866.56;1675732;84;23769;-72
2022/12/03 07:11:31;;;;;;;69.35;35.23;;;;;;;-4.33;92.22;100857.63;1675737;85;21055;-72
2022/12/03 07:14:01;;;;;;;58.50;30.72;;;;;;;-4.33;92.25;100857.63;1676790;85;21075;-72
2022/12/03 07:16:28;;;;;;;58.25;29.40;;;;;;;-4.31;92.47;100859.83;1675957;85;21007;-72
2022/12/03 07:18:55;;;;;;;55.48;30.08;;;;;;;-4.30;92.95;100856.45;1669177;84;21148;-72
2022/12/03 07:21:22;;;;;;;50.03;27.77;;;;;;;-4.29;92.76;100859.44;1675319;85;21076;-72
2022/12/03 07:23:48;;;;;;;62.40;32.30;;;;;;;-4.25;92.99;100862.12;1667923;85;21044;-72
2022/12/03 07:26:15;;;;;;;48.70;27.45;;;;;;;-4.28;92.94;100861.20;1662723;85;21040;-72
2022/12/03 07:28:42;;;;;;;47.45;25.77;;;;;;;-4.27;93.30;100853.13;1672258;84;21096;-72
2022/12/03 07:31:09;;;;;;;45.33;25.55;;;;;;;-4.29;93.02;100847.97;1674609;85;21176;-72
2022/12/03 07:33:35;;;;;;;41.75;23.42;;;;;;;-4.25;92.67;100851.92;1677538;84;21150;-72
2022/12/03 07:36:02;;;;;;;40.58;23.85;;;;;;;-4.24;92.71;100853.64;1667591;85;21368;-72
2022/12/03 07:38:29;;;;;;;41.73;21.80;;;;;;;-4.25;92.72;100849.37;1678153;84;21127;-72
2022/12/03 07:40:55;;;;;;;43.68;25.82;;;;;;;-4.25;92.93;100849.37;1675604;84;21060;-73
2022/12/03 07:43:22;;;;;;;35.57;21.20;;;;;;;-4.25;92.68;100851.92;1669779;84;21517;-74
2022/12/03 07:45:48;;;;;;;35.57;21.40;;;;;;;-4.23;92.49;100847.70;1652145;85;21019;-74
2022/12/03 07:48:15;;;;;;;34.60;22.17;;;;;;;-4.24;92.56;100860.02;1689180;83;21530;-73
2022/12/03 07:50:42;;;;;;;42.67;23.67;;;;;;;-4.23;92.31;100850.25;1681284;83;21126;-73
2022/12/03 07:53:08;;;;;;;31.73;20.15;;;;;;;-4.24;92.31;100845.98;1691620;83;21015;-73
2022/12/03 07:55:35;;;;;;;40.80;24.15;;;;;;;-4.21;92.42;100853.73;1693044;84;21078;-73
2022/12/03 07:58:02;;;;;;;38.73;22.02;;;;;;;-4.17;92.43;100850.44;1689522;84;21021;-73
2022/12/03 08:00:29;;;;;;;34.00;20.43;;;;;;;-4.12;92.42;100854.00;1691025;84;21553;-73
2022/12/03 08:02:55;;;;;;;38.53;23.10;;;;;;;-4.06;92.46;100855.48;1698948;83;21119;-74
2022/12/03 08:05:22;;;;;;;34.95;21.55;;;;;;;-4.05;92.25;100850.83;1675280;85;21384;-73
2022/12/03 08:07:50;;;;;;;45.70;23.22;;;;;;;-4.03;92.19;100858.13;1675025;85;21600;-73
2022/12/03 08:10:16;;;;;;;29.10;18.67;;;;;;;-4.00;92.16;100851.84;1678164;84;21145;-73
2022/12/03 08:12:43;;;;;;;35.85;20.62;;;;;;;-3.97;91.98;100854.48;1659987;85;21106;-73
2022/12/03 08:15:18;;;;;;;30.92;20.30;;;;;;;-3.97;91.89;100854.48;1688484;85;21049;-73
2022/12/03 08:17:50;;;;;;;39.42;22.98;;;;;;;-3.97;91.85;100859.58;1689086;84;21095;-73
2022/12/03 08:20:21;;;;;;;35.52;22.25;;;;;;;-4.00;91.95;100861.18;1694941;83;21071;-73
2022/12/03 08:22:51;;;;;;;33.10;21.50;;;;;;;-3.95;92.04;100860.50;1676760;85;21090;-73
2022/12/03 08:25:30;;;;;;;36.58;20.95;;;;;;;-3.87;92.15;100851.77;1677808;85;20986;-73
2022/12/03 08:28:11;;;;;;;37.83;22.67;;;;;;;-3.84;91.90;100846.75;1677885;85;21060;-73
2022/12/03 08:30:37;;;;;;;34.30;20.82;;;;;;;-3.82;91.93;100849.80;1658924;86;21085;-73
2022/12/03 08:33:18;;;;;;;43.48;22.05;;;;;;;-3.77;91.95;100843.98;1696411;84;21070;-73
2022/12/03 08:35:49;;;;;;;37.98;24.50;;;;;;;-3.74;91.94;100849.17;1696881;83;21062;-73
2022/12/03 08:38:21;;;;;;;33.40;20.75;;;;;;;-3.73;92.02;100844.52;1695856;84;21073;-73
2022/12/03 08:40:50;;;;;;;41.23;23.55;;;;;;;-3.68;92.11;100846.79;1694981;83;21120;-73
2022/12/03 08:43:22;;;;;;;39.42;23.27;;;;;;;-3.65;92.12;100851.98;1695331;83;21033;-73
2022/12/03 08:45:51;;;;;;;37.85;23.12;;;;;;;-3.63;92.07;100847.80;1697055;83;21053;-73
2022/12/03 08:48:33;;;;;;;43.68;26.57;;;;;;;-3.60;92.06;100845.32;1653907;85;21116;-73
2022/12/03 08:51:27;;;;;;;39.10;25.08;;;;;;;-3.59;91.93;100848.31;1678224;83;21549;-73
2022/12/03 08:53:58;;;;;;;40.30;25.35;;;;;;;-3.54;91.94;100845.48;1660407;86;21426;-73
2022/12/03 08:56:27;;;;;;;37.35;21.17;;;;;;;-3.55;92.06;100843.77;1676900;85;21025;-73
2022/12/03 08:59:13;;;;;;;36.42;21.02;;;;;;;-3.50;92.03;100844.77;1677419;85;21069;-73
2022/12/03 09:01:43;;;;;;;46.48;24.95;;;;;;;-3.53;91.95;100840.82;1664989;84;21073;-73
2022/12/03 09:04:23;;;;;;;36.95;22.32;;;;;;;-3.53;91.95;100848.48;1664772;86;21148;-73
2022/12/03 09:06:52;;;;;;;33.13;21.42;;;;;;;-3.51;92.07;100853.23;1697011;83;21113;-73
2022/12/03 09:09:20;;;;;;;39.15;22.32;;;;;;;-3.49;92.09;100851.59;1678713;85;20977;-73
2022/12/03 09:11:47;;;;;;;34.27;21.68;;;;;;;-3.49;92.10;100853.28;1677248;85;21052;-73
2022/12/03 09:14:14;;;;;;;40.63;22.10;;;;;;;-3.49;91.84;100851.59;1678107;85;21011;-73
2022/12/03 09:16:41;;;;;;;49.60;26.68;;;;;;;-3.54;91.78;100853.14;1678213;85;20980;-72
2022/12/03 09:19:07;;;;;;;42.70;24.72;;;;;;;-3.49;91.92;100849.45;1682101;85;21026;-72
2022/12/03 09:21:34;;;;;;;35.58;22.60;;;;;;;-3.47;91.80;100848.68;1697176;83;21065;-72
2022/12/03 09:24:01;;;;;;;35.17;22.25;;;;;;;-3.45;91.92;100845.73;1702678;83;21060;-72
2022/12/03 09:26:28;;;;;;;37.40;23.10;;;;;;;-3.44;91.89;100841.09;1699773;83;21119;-72
2022/12/03 09:28:55;;;;;;;36.93;23.83;;;;;;;-3.42;91.87;100840.73;1681960;84;21010;-72
2022/12/03 09:31:22;;;;;;;35.88;21.33;;;;;;;-3.37;91.88;100834.45;1679669;84;21539;-72
2022/12/03 09:33:48;;;;;;;37.93;23.12;;;;;;;-3.38;91.77;100837.42;1672091;85;21532;-72
2022/12/03 09:36:15;;;;;;;36.65;20.32;;;;;;;-3.35;91.84;100830.69;1699113;83;21005;-72
2022/12/03 09:38:43;;;;;;;35.52;21.33;;;;;;;-3.35;91.74;100831.96;1703280;83;22337;-72
2022/12/03 09:41:11;;;;;;;42.45;23.18;;;;;;;-3.38;91.74;100828.91;1717048;83;21148;-72
2022/12/03 09:43:38;;;;;;;42.13;22.07;;;;;;;-3.41;91.69;100827.13;1663497;86;21093;-72
2022/12/03 09:46:05;;;;;;;39.40;25.23;;;;;;;-3.42;91.76;100822.86;1699441;83;21125;-72
2022/12/03 09:48:31;;;;;;;36.83;22.25;;;;;;;-3.39;91.78;100825.49;1666905;86;21549;-72
2022/12/03 09:50:58;;;;;;;35.85;22.70;;;;;;;-3.37;91.83;100824.23;1699703;83;21061;-72
2022/12/03 09:53:27;;;;;;;37.78;23.45;;;;;;;-3.38;91.81;100821.25;1666107;86;21105;-74
2022/12/03 09:55:58;;;;;;;37.88;24.45;;;;;;;-3.41;91.90;100819.47;1697172;83;21537;-73
2022/12/03 09:58:29;;;;;;;39.15;25.05;;;;;;;-3.34;91.92;100817.08;1695839;83;21573;-72
2022/12/03 10:00:56;;;;;;;38.05;23.90;;;;;;;-3.26;91.97;100815.59;1677447;85;21093;-72
2022/12/03 10:03:26;;;;;;;;;;;;;;;-3.20;91.90;100813.19;1677901;84;21122;-73
2022/12/03 10:05:54;;;;;;;34.33;21.07;;;;;;;-3.15;91.81;100809.07;1676252;85;20095;-72
2022/12/03 10:08:22;;;;;;;;;;;;;;;-3.16;91.78;100812.47;1691467;84;21006;-72
2022/12/03 10:10:55;;;;;;;37.30;20.75;;;;;;;-3.14;91.75;100810.78;1678980;85;20185;-72
2022/12/03 10:13:30;;;;;;;33.45;21.12;;;;;;;-3.20;91.59;100811.50;1679049;85;21068;-72
2022/12/03 10:15:59;;;;;;;42.98;24.60;;;;;;;-3.18;91.80;100804.74;1664928;85;21122;-72
2022/12/03 10:18:30;;;;;;;42.15;24.90;;;;;;;-3.13;91.75;100806.15;1692621;84;21567;-72
2022/12/03 10:20:57;;;;;;;37.53;24.43;;;;;;;-3.14;91.72;100805.68;1698671;83;21029;-72
2022/12/03 10:23:28;;;;;;;37.48;24.23;;;;;;;-3.08;91.80;100805.86;1707222;83;21557;-72
2022/12/03 10:25:59;;;;;;;38.45;22.98;;;;;;;-3.03;91.86;100805.95;1659584;86;20976;-72
2022/12/03 10:28:36;;;;;;;37.78;24.25;;;;;;;-3.03;91.78;100801.70;1706605;83;21007;-72
2022/12/03 10:31:09;;;;;;;;;;;;;;;-3.07;91.68;100802.47;1701046;83;21037;-72
2022/12/03 10:33:41;;;;;;;39.25;22.15;;;;;;;-3.06;91.81;100802.91;1663443;85;20202;-72
2022/12/03 10:36:24;;;;;;;37.95;23.32;;;;;;;-3.06;91.82;100800.35;1674304;84;21063;-73
2022/12/03 10:39:14;;;;;;;35.78;21.50;;;;;;;-3.07;91.78;100802.47;1677599;85;21075;-72
2022/12/03 10:41:43;;;;;;;33.40;21.60;;;;;;;-3.10;91.67;100802.39;1690716;84;21081;-72
2022/12/03 10:44:22;;;;;;;31.00;21.55;;;;;;;-3.11;91.81;100805.75;1696775;83;21073;-73
2022/12/03 10:47:11;;;;;;;33.92;21.05;;;;;;;-3.10;91.87;100799.84;1673830;85;21007;-72
2022/12/03 10:49:40;;;;;;;41.10;22.40;;;;;;;-3.09;91.80;100791.34;1668190;84;21056;-73
2022/12/03 10:52:12;;;;;;;49.03;29.52;;;;;;;-3.03;91.84;100796.59;1689565;84;21080;-72
2022/12/03 10:54:39;;;;;;;47.93;28.02;;;;;;;-3.02;91.77;100795.79;1674957;84;21099;-72
2022/12/03 10:57:05;;;;;;;36.60;22.90;;;;;;;-2.97;91.76;100800.61;1679177;85;21080;-72
2022/12/03 10:59:34;;;;;;;36.17;23.38;;;;;;;-2.96;91.82;100799.77;1665671;86;21531;-72
2022/12/03 11:02:03;;;;;;;32.83;22.80;;;;;;;-2.98;91.78;100795.02;1695731;83;21568;-72
2022/12/03 11:04:35;;;;;;;33.05;23.38;;;;;;;-2.97;91.79;100800.61;1673774;85;21064;-72
2022/12/03 11:07:14;;;;;;;34.90;23.27;;;;;;;-2.97;91.81;100791.66;1676442;85;21044;-72
2022/12/03 11:09:45;;;;;;;37.20;23.85;;;;;;;-2.96;91.83;100785.72;1677899;84;21134;-72
2022/12/03 11:12:22;;;;;;;36.00;23.15;;;;;;;-2.96;91.76;100790.82;1676765;84;21056;-72
2022/12/03 11:15:03;;;;;;;46.08;28.17;;;;;;;-2.93;91.87;100788.34;1677266;84;21075;-72
2022/12/03 11:17:48;;;;;;;33.33;22.87;;;;;;;-2.79;92.02;100786.54;1663022;86;21118;-72
2022/12/03 11:20:32;;;;;;;34.25;22.93;;;;;;;-2.76;91.91;100790.44;1704108;83;21608;-72
2022/12/03 11:23:00;;;;;;;40.55;25.08;;;;;;;-2.73;91.81;100780.29;1659568;85;21030;-72
2022/12/03 11:25:36;;;;;;;40.38;23.75;;;;;;;-2.78;91.62;100779.31;1697636;83;21200;-72
2022/12/03 11:28:19;;;;;;;40.28;23.32;;;;;;;-2.79;91.72;100780.15;1668363;84;21235;-72
2022/12/03 11:30:55;;;;;;;44.23;26.33;;;;;;;-2.82;91.73;100781.36;1651467;85;21667;-72
2022/12/03 11:33:40;;;;;;;35.20;21.80;;;;;;;-2.84;91.79;100779.17;1668517;85;21664;-72
2022/12/03 11:36:10;;;;;;;37.60;22.45;;;;;;;-2.84;91.86;100775.34;1671869;85;21016;-72
2022/12/03 11:38:44;;;;;;;41.80;25.95;;;;;;;-2.82;92.00;100778.80;1655943;85;21068;-72
2022/12/03 11:41:22;;;;;;;37.85;24.00;;;;;;;-2.83;92.04;100770.66;1668903;84;20970;-72